Puyallup, WA

2:07 PM PDT on October 25, 2014 (GMT -0700)
River Improvement Lab | Change Station
CLOSE
Current Station
Personal Weather Station
Location: Puyallup, WA
Elevation: 0 ft
Nearby Weather Stations
Active Advisory: High Wind Warning

Elev 0 ft 47.20 °N, 122.30 °W | Updated 10 minutes ago

Mostly Cloudy
Mostly Cloudy
56.6 °F
Feels Like 56.6 °F
N
0.9
Wind Variable Wind from NW
Gusts 2.9 mph

Today
High -- | Low -- °F
--% Chance of Precip.
Yesterday
High -- | Low -- °F
Precip. -- in
7:42 AM 6:03 PM
Waxing Crescent, 4% visible
Pressure 29.33 in
Visibility 8.0 miles
Clouds Overcast 6000 ft
Dew Point 55 °F
Humidity 90%
Rainfall -999.00 in
Snow Depth Not available.
UV 1 out of 12
Pollen .40 out of 12
PM2.5 Good
Flu Activity Sporadic
METAR KTCM 252058Z AUTO 34003KT 8SM -RA OVC060 14/13 A2932 RMK AO2 RAB2031 SLP932 P0000 60000 T01360130 57038 $

More Conditions Fewer Conditions

Pressure 29.33 in
Visibility 8.0 miles
Clouds Overcast 6000 ft
Dew Point 55 °F
Humidity 90%
Rainfall -999.00 in
Snow Depth Not available.
UV 1 out of 12
Pollen .40 out of 12
PM2.5 Good
Flu Activity Sporadic
METAR KTCM 252058Z AUTO 34003KT 8SM -RA OVC060 14/13 A2932 RMK AO2 RAB2031 SLP932 P0000 60000 T01360130 57038 $

More Conditions Fewer Conditions

10-Day Weather Forecast

Almanac

Astronomy

Oct. 25, 2014 Rise Set
Actual Time 7:42 AM PDT 6:03 PM PDT
Civil Twilight 7:10 AM PDT 6:35 PM PDT
Nautical Twilight 6:34 AM PDT 7:10 PM PDT
Astronomical Twilight 5:59 AM PDT 7:46 PM PDT
Moon 9:31 AM PDT 7:24 PM PDT
Length of Visible Light 11h 24m
Length of Day
10h 21m
Tomorrow will be 3m 9s shorter.
Waxing Crescent, 4% of the Moon is Illuminated
Today
Waxing Crescent
Oct 30
First Quarter
Nov 6
Full
Nov 14
Last Quarter
Nov 22
New

Today's Extremes

State Highs State Lows

Community

WunderPhotos

Upload Photos

1,764,996 photos uploaded!

Nearby

Air Quality

  Air Quality AQ Index Pollutant
Yesterday Good
PM2.5
Current Good
PM2.5
Saturday Good
PM2.5
Sunday Good
PM2.5
Monday Good
PM2.5
Tuesday Good
PM2.5
Wednesday Good
PM2.5

Snow Depth

Station Depth Elevation
Mount Gardner 0 in 3000 ft
Meadows Pass 0 in 3500 ft
Olallie Meadows 0 in 3700 ft
Morse Lake 0 in 5400 ft
Stampede Pass 0 in 3860 ft

Earthquake Activity

City Distance Mag. Time & Date
Birch Bay, Washington 114 miles 2.8 3:02 AM PDT
2014-10-24
Minimum magnitude displayed is 2.5.

Coastal Water Temperatures

Place Temperature
Port Townsend, WA 52.0 °F
Seattle, WA 55.0 °F
Friday Harbor, WA 51.1 °F
Tacoma, WA 54.0 °F

Nearby Weather Stations